Aviation Digital Data Service (ADDS)

Output produced by METARs form (0606 UTC 24 May 2017)
found at http://aviationweather.gov/adds/metars/
 
KPOU 240523Z 2406/2506 00000KT P6SM BKN150 
     FM241000 00000KT P6SM VCSH BKN090 OVC150 
     FM241600 08004KT P6SM SCT080 
     FM242300 VRB03KT P6SM BKN150